createdAt,value
2018-05-16T00:00:18.520Z,20.16
2018-05-16T00:00:58.929Z,20.08
2018-05-16T00:01:39.423Z,20.05
2018-05-16T00:02:19.755Z,20.08
2018-05-16T00:03:00.197Z,20.04
2018-05-16T00:03:40.580Z,20.05
2018-05-16T00:04:21.315Z,20.05
2018-05-16T00:05:01.702Z,20.05
2018-05-16T00:05:42.206Z,20.08
2018-05-16T00:06:22.716Z,20.04
2018-05-16T00:07:03.196Z,20.04
2018-05-16T00:07:43.747Z,20.1
2018-05-16T00:08:24.063Z,19.97
2018-05-16T00:09:04.472Z,20.08
2018-05-16T00:09:45.024Z,20.02
2018-05-16T00:10:29.402Z,19.98
2018-05-16T00:11:13.933Z,20.02
2018-05-16T00:11:52.310Z,19.98
2018-05-16T00:12:33.123Z,19.85
2018-05-16T00:13:15.466Z,19.87
2018-05-16T00:13:56.067Z,19.89
2018-05-16T00:14:36.292Z,19.86
2018-05-16T00:15:16.693Z,20.01
2018-05-16T00:15:57.239Z,19.89
2018-05-16T00:16:37.963Z,19.89
2018-05-16T00:17:18.466Z,19.87
2018-05-16T00:17:58.888Z,19.87
2018-05-16T00:18:39.332Z,19.98
2018-05-16T00:19:20.163Z,19.97
2018-05-16T00:20:00.779Z,20
2018-05-16T00:20:41.431Z,19.89
2018-05-16T00:21:21.829Z,19.85
2018-05-16T00:22:04.326Z,19.89
2018-05-16T00:22:45.231Z,19.86
2018-05-16T00:23:25.678Z,19.79
2018-05-16T00:24:06.191Z,19.76
2018-05-16T00:24:46.455Z,19.87
2018-05-16T00:25:26.941Z,19.78
2018-05-16T00:26:07.903Z,19.72
2018-05-16T00:26:48.802Z,19.72
2018-05-16T00:27:29.479Z,19.75
2018-05-16T00:28:09.718Z,19.78
2018-05-16T00:28:50.062Z,19.75
2018-05-16T00:29:30.461Z,19.78
2018-05-16T00:30:10.944Z,19.79
2018-05-16T00:30:51.358Z,19.71
2018-05-16T00:31:31.991Z,19.78
2018-05-16T00:32:12.505Z,19.82
2018-05-16T00:32:52.897Z,19.87
2018-05-16T00:33:33.307Z,19.72
2018-05-16T00:34:13.752Z,19.75
2018-05-16T00:34:54.288Z,19.72
2018-05-16T00:35:35.364Z,19.78
2018-05-16T00:36:16.330Z,19.8
2018-05-16T00:36:56.893Z,19.72
2018-05-16T00:37:37.420Z,19.75
2018-05-16T00:38:17.799Z,19.82
2018-05-16T00:38:58.524Z,19.78
2018-05-16T00:39:41.311Z,19.83
2018-05-16T00:40:21.689Z,19.86
2018-05-16T00:41:02.425Z,19.76
2018-05-16T00:41:42.861Z,19.85
2018-05-16T00:42:23.989Z,19.76
2018-05-16T00:43:04.557Z,19.82
2018-05-16T00:43:45.311Z,19.79
2018-05-16T00:44:26.144Z,19.75
2018-05-16T00:45:06.411Z,19.76
2018-05-16T00:45:46.909Z,19.76
2018-05-16T00:48:29.842Z,19.86
2018-05-16T00:49:10.184Z,19.85
2018-05-16T00:49:50.799Z,19.82
2018-05-16T00:50:31.200Z,19.76
2018-05-16T00:51:12.362Z,19.82
2018-05-16T00:51:52.883Z,19.82
2018-05-16T00:52:33.406Z,19.79
2018-05-16T00:53:14.174Z,19.78
2018-05-16T00:53:56.047Z,19.75
2018-05-16T00:54:37.472Z,19.79
2018-05-16T00:55:25.065Z,19.78
2018-05-16T00:56:06.772Z,19.78
2018-05-16T00:56:47.128Z,19.71
2018-05-16T00:57:32.110Z,19.71
2018-05-16T00:58:12.532Z,19.67
2018-05-16T00:58:56.428Z,19.68
2018-05-16T00:59:36.799Z,19.62
2018-05-16T01:00:21.062Z,19.62
2018-05-16T01:01:01.473Z,19.67
2018-05-16T01:03:05.841Z,19.55
2018-05-16T01:03:46.347Z,19.62
2018-05-16T01:04:27.200Z,19.65
2018-05-16T01:05:14.220Z,19.58
2018-05-16T01:05:54.445Z,19.55
2018-05-16T01:06:36.420Z,19.47
2018-05-16T01:07:24.424Z,19.46
2018-05-16T01:08:05.037Z,19.49
2018-05-16T01:08:47.265Z,19.43
2018-05-16T01:09:31.610Z,19.46
2018-05-16T01:10:13.544Z,19.4
2018-05-16T01:10:53.911Z,19.46
2018-05-16T01:16:00.219Z,19.38
2018-05-16T01:18:46.732Z,19.46
2018-05-16T01:19:27.052Z,19.5
2018-05-16T01:20:07.663Z,19.45
2018-05-16T01:20:48.147Z,19.39
2018-05-16T01:21:28.589Z,19.52
2018-05-16T01:22:09.420Z,19.35
2018-05-16T01:22:49.635Z,19.45
2018-05-16T01:23:30.081Z,19.47
2018-05-16T01:24:10.451Z,19.35
2018-05-16T01:24:52.645Z,19.38
2018-05-16T01:25:33.739Z,19.45
2018-05-16T01:26:14.117Z,19.52
2018-05-16T01:26:54.558Z,19.43
2018-05-16T01:27:35.193Z,19.47
2018-05-16T01:28:15.801Z,19.49
2018-05-16T01:28:56.308Z,19.5
2018-05-16T01:29:36.631Z,19.47
2018-05-16T01:30:17.016Z,19.43
2018-05-16T01:30:57.482Z,19.47
2018-05-16T01:31:39.268Z,19.42
2018-05-16T01:32:30.902Z,19.42
2018-05-16T01:33:11.298Z,19.35
2018-05-16T01:33:59.078Z,19.34
2018-05-16T01:34:39.466Z,19.32
2018-05-16T01:35:19.915Z,19.3
2018-05-16T01:36:03.691Z,19.34
2018-05-16T01:36:47.452Z,19.39
2018-05-16T01:37:27.667Z,19.38
2018-05-16T01:38:08.279Z,19.28
2018-05-16T01:38:50.668Z,19.32
2018-05-16T01:42:17.732Z,19.35
2018-05-16T01:43:12.492Z,19.3
2018-05-16T01:43:53.098Z,19.27
2018-05-16T01:44:33.474Z,19.27
2018-05-16T01:45:13.865Z,19.21
2018-05-16T01:45:54.286Z,19.25
2018-05-16T01:46:34.744Z,19.23
2018-05-16T01:47:15.304Z,19.2
2018-05-16T01:47:56.057Z,19.12
2018-05-16T01:48:36.537Z,19.12
2018-05-16T01:49:16.874Z,19.16
2018-05-16T01:50:00.897Z,19.05
2018-05-16T01:50:42.849Z,18.79
2018-05-16T01:51:26.070Z,18.62
2018-05-16T01:52:08.573Z,18.35
2018-05-16T01:52:52.541Z,18.32
2018-05-16T01:53:33.091Z,18.34
2018-05-16T01:54:13.454Z,18.29
2018-05-16T01:54:53.884Z,18.28
2018-05-16T01:55:39.134Z,18.2
2018-05-16T01:56:21.949Z,18.2
2018-05-16T01:57:02.656Z,18.09
2018-05-16T01:57:43.093Z,18.01
2018-05-16T01:58:23.758Z,17.89
2018-05-16T01:59:05.826Z,17.86
2018-05-16T01:59:46.304Z,17.76
2018-05-16T02:00:28.312Z,17.81
2018-05-16T02:01:08.807Z,17.8
2018-05-16T02:01:49.246Z,17.81
2018-05-16T02:02:29.662Z,17.77
2018-05-16T02:03:10.111Z,17.73
2018-05-16T02:03:53.312Z,17.68
2018-05-16T02:04:34.247Z,17.8
2018-05-16T02:05:16.378Z,17.7
2018-05-16T02:06:57.573Z,17.8
2018-05-16T02:12:04.543Z,17.38
2018-05-16T02:12:55.059Z,17.33
2018-05-16T02:13:35.850Z,17.35
2018-05-16T02:16:15.494Z,17.14
2018-05-16T02:16:55.916Z,17.17
2018-05-16T02:17:36.382Z,17.14
2018-05-16T02:18:16.839Z,17.09
2018-05-16T02:18:57.432Z,17.1
2018-05-16T02:19:37.876Z,17.1
2018-05-16T02:20:18.425Z,17.1
2018-05-16T02:20:58.750Z,17.15
2018-05-16T02:21:39.227Z,17.14
2018-05-16T02:22:20.163Z,17.12
2018-05-16T02:23:04.073Z,17.15
2018-05-16T02:23:44.492Z,17.14
2018-05-16T02:24:26.005Z,17.1
2018-05-16T02:25:07.462Z,17.12
2018-05-16T02:25:49.704Z,16.92
2018-05-16T02:26:32.580Z,16.88
2018-05-16T02:27:13.650Z,16.9
2018-05-16T02:28:14.414Z,16.82
2018-05-16T02:28:56.733Z,16.78
2018-05-16T02:29:37.573Z,16.69
2018-05-16T02:30:18.687Z,16.62
2018-05-16T02:31:02.424Z,16.62
2018-05-16T02:35:41.197Z,16.4
2018-05-16T03:46:52.974Z,16.22
2018-05-16T03:47:33.346Z,16.23
2018-05-16T03:48:13.727Z,16.22
2018-05-16T03:48:54.126Z,16.18
2018-05-16T03:49:34.569Z,16.26
2018-05-16T03:50:14.981Z,16.26
2018-05-16T03:50:55.362Z,16.17
2018-05-16T03:51:35.772Z,16.18
2018-05-16T03:52:16.163Z,16.25
2018-05-16T03:52:56.573Z,16.23
2018-05-16T03:53:36.963Z,16.27
2018-05-16T03:54:17.400Z,16.22
2018-05-16T03:54:57.802Z,16.27
2018-05-16T03:55:38.170Z,16.29
2018-05-16T03:56:18.572Z,16.27
2018-05-16T03:59:41.029Z,16.27
2018-05-16T04:01:28.722Z,16.45
2018-05-16T04:02:09.055Z,16.5
2018-05-16T04:02:49.433Z,16.52
2018-05-16T04:03:29.805Z,16.51
2018-05-16T04:41:21.504Z,15.81
2018-05-16T04:42:01.822Z,15.81
2018-05-16T04:44:14.745Z,15.84
2018-05-16T04:44:55.117Z,15.84
2018-05-16T04:46:43.830Z,15.84
2018-05-16T04:47:24.170Z,15.86
2018-05-16T04:48:04.617Z,15.78
2018-05-16T04:48:45.016Z,15.8
2018-05-16T04:49:25.394Z,15.81
2018-05-16T05:00:33.489Z,16.42
2018-05-16T05:01:13.891Z,16.5
2018-05-16T05:01:54.318Z,16.55
2018-05-16T05:02:34.677Z,16.52
2018-05-16T05:03:15.097Z,16.62
2018-05-16T05:03:55.505Z,16.63
2018-05-16T05:04:35.910Z,16.8
2018-05-16T05:05:16.317Z,17.02
2018-05-16T05:05:56.698Z,17.18
2018-05-16T05:06:37.095Z,17.12
2018-05-16T05:07:17.453Z,17.32
2018-05-16T05:07:57.891Z,17.57
2018-05-16T05:08:38.314Z,17.94
2018-05-16T05:09:18.685Z,18.31
2018-05-16T05:09:59.139Z,18.46
2018-05-16T05:10:39.533Z,18.82
2018-05-16T05:11:19.924Z,19.12
2018-05-16T05:12:00.337Z,19.49
2018-05-16T05:12:40.738Z,19.86
2018-05-16T05:13:21.191Z,20.08
2018-05-16T05:14:01.531Z,20.33
2018-05-16T05:14:41.938Z,20.48
2018-05-16T05:15:22.367Z,20.51
2018-05-16T05:16:02.726Z,20.64
2018-05-16T05:16:43.146Z,20.91
2018-05-16T05:17:23.519Z,20.98
2018-05-16T05:18:03.902Z,21.26
2018-05-16T05:18:44.362Z,21.36
2018-05-16T05:19:24.752Z,21.61
2018-05-16T05:20:05.147Z,21.68
2018-05-16T05:20:45.543Z,22.01
2018-05-16T05:21:25.997Z,22.11
2018-05-16T05:22:06.392Z,22.2
2018-05-16T05:22:46.891Z,22.17
2018-05-16T05:23:27.273Z,22.06
2018-05-16T05:24:07.739Z,22.27
2018-05-16T05:24:48.056Z,22.39
2018-05-16T05:25:28.507Z,22.6
2018-05-16T05:26:08.886Z,22.78
2018-05-16T05:26:49.310Z,22.89
2018-05-16T05:27:44.535Z,23.18
2018-05-16T05:28:24.892Z,23.38
2018-05-16T05:29:05.352Z,23.75
2018-05-16T05:29:45.779Z,23.82
2018-05-16T05:30:26.198Z,24.09
2018-05-16T05:31:06.533Z,24.21
2018-05-16T05:31:47.007Z,24.34
2018-05-16T05:32:27.379Z,24.55
2018-05-16T05:33:07.837Z,24.49
2018-05-16T05:33:48.196Z,24.63
2018-05-16T05:34:28.615Z,24.82
2018-05-16T05:35:09.024Z,24.86
2018-05-16T05:35:49.363Z,24.92
2018-05-16T05:36:29.855Z,25.05
2018-05-16T05:37:10.254Z,24.99
2018-05-16T05:37:50.677Z,25.22
2018-05-16T05:38:31.117Z,25.17
2018-05-16T05:39:11.494Z,25.23
2018-05-16T05:39:51.953Z,25.22
2018-05-16T05:40:32.315Z,25.2
2018-05-16T05:41:12.730Z,25.23
2018-05-16T05:41:53.143Z,25.22
2018-05-16T05:42:33.617Z,25.38
2018-05-16T05:43:14.179Z,25.39
2018-05-16T05:43:54.503Z,25.44
2018-05-16T05:44:34.935Z,25.54
2018-05-16T05:45:15.296Z,25.39
2018-05-16T05:45:55.787Z,25.31
2018-05-16T05:46:36.135Z,25.31
2018-05-16T05:47:17.365Z,25.41
2018-05-16T05:47:57.299Z,25.49
2018-05-16T05:48:37.760Z,25.64
2018-05-16T05:49:18.184Z,25.67
2018-05-16T05:49:58.647Z,25.71
2018-05-16T05:50:39.080Z,25.74
2018-05-16T05:51:19.629Z,25.83
2018-05-16T05:51:59.945Z,26.09
2018-05-16T05:52:40.352Z,26.23
2018-05-16T05:54:53.491Z,26.42
2018-05-16T05:55:33.866Z,26.54
2018-05-16T05:56:14.302Z,26.65
2018-05-16T05:56:54.867Z,26.69
2018-05-16T05:57:35.116Z,26.76
2018-05-16T05:58:15.588Z,26.87
2018-05-16T05:58:55.897Z,27.13
2018-05-16T05:59:36.307Z,27.2
2018-05-16T06:00:17.669Z,27.25
2018-05-16T06:00:57.322Z,27.4
2018-05-16T06:01:37.762Z,27.43
2018-05-16T06:02:18.242Z,27.5
2018-05-16T06:02:58.713Z,27.5
2018-05-16T06:03:39.128Z,27.49
2018-05-16T06:04:19.582Z,27.5
2018-05-16T06:04:59.999Z,27.52
2018-05-16T06:05:40.440Z,27.65
2018-05-16T06:06:20.856Z,27.76
2018-05-16T06:07:01.250Z,27.87
2018-05-16T06:07:41.665Z,27.86
2018-05-16T06:08:22.121Z,27.91
2018-05-16T06:09:02.593Z,27.95
2018-05-16T06:09:42.956Z,28.06
2018-05-16T06:10:23.402Z,27.88
2018-05-16T06:11:03.805Z,28.11
2018-05-16T06:11:44.196Z,28.24
2018-05-16T06:12:24.641Z,28.39
2018-05-16T06:13:05.113Z,28.45
2018-05-16T06:13:45.499Z,28.46
2018-05-16T06:14:25.893Z,28.64
2018-05-16T06:15:06.292Z,28.69
2018-05-16T06:15:49.459Z,28.74
2018-05-16T06:16:28.359Z,28.74
2018-05-16T06:17:08.734Z,28.54
2018-05-16T06:17:49.142Z,28.5
2018-05-16T06:18:29.590Z,28.62
2018-05-16T06:19:10.013Z,28.69
2018-05-16T06:19:50.549Z,28.69
2018-05-16T06:20:31.085Z,28.72
2018-05-16T06:21:11.591Z,28.72
2018-05-16T06:21:52.067Z,28.62
2018-05-16T06:22:32.441Z,28.73
2018-05-16T06:23:12.843Z,28.72
2018-05-16T06:23:53.338Z,28.79
2018-05-16T06:24:33.685Z,28.82
2018-05-16T06:25:14.135Z,28.6
2018-05-16T06:25:54.590Z,28.52
2018-05-16T06:26:35.085Z,28.43
2018-05-16T06:27:15.562Z,28.4
2018-05-16T06:27:55.877Z,28.39
2018-05-16T06:28:36.312Z,28.27
2018-05-16T06:29:16.755Z,28.25
2018-05-16T06:29:57.149Z,28.33
2018-05-16T06:30:37.650Z,28.21
2018-05-16T06:31:18.180Z,28.25
2018-05-16T06:31:58.580Z,28.2
2018-05-16T06:32:38.957Z,28.17
2018-05-16T06:33:19.387Z,28.21
2018-05-16T06:35:36.703Z,28.35
2018-05-16T06:36:17.819Z,28.28
2018-05-16T06:36:58.276Z,28.4
2018-05-16T06:37:39.510Z,28.48
2018-05-16T06:38:20.989Z,28.51
2018-05-16T06:39:01.509Z,28.48
2018-05-16T06:39:42.159Z,28.25
2018-05-16T06:40:22.647Z,28.17
2018-05-16T06:41:03.410Z,28.02
2018-05-16T06:41:43.851Z,28.11
2018-05-16T06:42:24.303Z,28.09
2018-05-16T06:43:04.806Z,28.09
2018-05-16T06:43:45.273Z,28.13
2018-05-16T06:45:58.491Z,28.06
2018-05-16T06:46:38.867Z,28.01
2018-05-16T06:47:19.279Z,27.98
2018-05-16T06:47:59.666Z,28.02
2018-05-16T06:48:40.075Z,27.96
2018-05-16T06:49:20.592Z,28.01
2018-05-16T06:50:00.923Z,27.95
2018-05-16T06:50:41.398Z,27.84
2018-05-16T06:51:21.815Z,27.9
2018-05-16T06:52:02.198Z,27.69
2018-05-16T06:52:42.694Z,27.5
2018-05-16T06:53:23.106Z,27.55
2018-05-16T06:54:03.545Z,27.52
2018-05-16T06:54:43.911Z,27.5
2018-05-16T06:55:25.266Z,27.5
2018-05-16T06:56:05.108Z,27.5
2018-05-16T06:56:45.670Z,27.45
2018-05-16T06:57:26.039Z,27.4
2018-05-16T06:58:06.436Z,27.35
2018-05-16T06:58:47.059Z,27.45
2018-05-16T06:59:27.558Z,27.49
2018-05-16T07:00:07.912Z,27.53
2018-05-16T07:00:48.712Z,27.68
2018-05-16T07:01:29.129Z,27.69
2018-05-16T07:02:09.707Z,27.71
2018-05-16T07:02:50.136Z,27.78
2018-05-16T07:03:30.708Z,27.86
2018-05-16T07:04:11.247Z,27.87
2018-05-16T07:04:51.544Z,27.86
2018-05-16T07:05:32.028Z,27.8
2018-05-16T07:06:12.627Z,27.81
2018-05-16T07:07:07.715Z,27.88
2018-05-16T07:07:55.018Z,27.91
2018-05-16T07:08:35.498Z,27.87
2018-05-16T07:09:30.841Z,27.84
2018-05-16T07:10:11.303Z,27.84
2018-05-16T07:12:55.526Z,27.83
2018-05-16T07:13:36.396Z,27.68
2018-05-16T07:14:17.576Z,27.77
2018-05-16T07:14:58.781Z,27.71
2018-05-16T07:15:39.652Z,27.65
2018-05-16T07:16:20.441Z,27.66
2018-05-16T07:17:00.890Z,27.83
2018-05-16T07:17:41.547Z,27.87
2018-05-16T07:18:22.152Z,27.88
2018-05-16T07:19:02.741Z,27.77
2018-05-16T07:19:44.199Z,27.74
2018-05-16T07:20:24.513Z,27.87
2018-05-16T07:21:04.966Z,27.86
2018-05-16T07:21:45.410Z,28.05
2018-05-16T07:22:25.860Z,27.95
2018-05-16T07:23:06.391Z,28.02
2018-05-16T07:23:47.217Z,28.02
2018-05-16T07:24:28.641Z,28.02
2018-05-16T07:25:09.055Z,28.13
2018-05-16T07:25:49.748Z,28.08
2018-05-16T07:26:30.185Z,28.17
2018-05-16T07:27:10.836Z,28.23
2018-05-16T07:27:51.133Z,28.27
2018-05-16T07:28:31.604Z,28.21
2018-05-16T07:29:12.179Z,28.23
2018-05-16T07:29:54.370Z,28.02
2018-05-16T07:30:34.675Z,27.86
2018-05-16T07:31:15.101Z,27.68
2018-05-16T07:31:56.802Z,27.66
2018-05-16T07:32:37.649Z,27.63
2018-05-16T07:33:18.217Z,27.61
2018-05-16T07:33:58.879Z,27.69
2018-05-16T07:34:39.520Z,27.83
2018-05-16T07:35:31.701Z,27.86
2018-05-16T07:36:12.156Z,27.76
2018-05-16T07:36:54.203Z,27.72
2018-05-16T07:37:34.810Z,27.74
2018-05-16T07:38:15.392Z,27.69
2018-05-16T07:38:57.352Z,27.69
2018-05-16T07:39:37.911Z,27.69
2018-05-16T07:40:18.033Z,27.78
2018-05-16T07:40:59.979Z,27.68
2018-05-16T07:41:40.742Z,27.77
2018-05-16T07:42:21.560Z,27.62
2018-05-16T07:43:03.715Z,27.5
2018-05-16T07:43:44.755Z,27.43
2018-05-16T07:44:25.628Z,27.42
2018-05-16T07:46:22.632Z,27.2
2018-05-16T07:48:49.047Z,27.01
2018-05-16T07:49:29.029Z,27.08
2018-05-16T07:50:11.015Z,27.16
2018-05-16T07:50:51.523Z,27.31
2018-05-16T07:51:33.516Z,27.2
2018-05-16T07:52:16.676Z,27.24
2018-05-16T07:52:56.967Z,27.24
2018-05-16T07:53:37.206Z,27.43
2018-05-16T07:54:18.442Z,27.43
2018-05-16T07:55:00.984Z,27.45
2018-05-16T07:55:40.870Z,27.55
2018-05-16T07:56:21.329Z,27.71
2018-05-16T07:57:02.012Z,27.76
2018-05-16T07:57:43.547Z,27.83
2018-05-16T07:58:23.676Z,27.83
2018-05-16T07:59:04.698Z,27.8
2018-05-16T07:59:45.358Z,27.8
2018-05-16T08:00:26.150Z,27.76
2018-05-16T08:01:06.763Z,27.84
2018-05-16T08:01:47.391Z,27.87
2018-05-16T08:02:27.901Z,27.84
2018-05-16T08:03:09.219Z,27.91
2018-05-16T08:03:50.313Z,28.01
2018-05-16T08:04:32.251Z,28.01
2018-05-16T08:05:12.812Z,28.01
2018-05-16T08:05:53.678Z,27.98
2018-05-16T08:06:33.901Z,27.88
2018-05-16T08:07:14.444Z,27.98
2018-05-16T08:07:55.800Z,27.96
2018-05-16T08:08:36.284Z,28.14
2018-05-16T08:09:17.848Z,28.15
2018-05-16T08:10:00.036Z,28.3
2018-05-16T08:10:41.144Z,28.39
2018-05-16T08:11:21.810Z,28.4
2018-05-16T08:12:04.983Z,28.48
2018-05-16T08:12:44.678Z,28.39
2018-05-16T08:13:25.477Z,28.51
2018-05-16T08:14:05.946Z,28.45
2018-05-16T08:14:46.606Z,28.28
2018-05-16T08:15:27.137Z,28.38
2018-05-16T08:16:08.206Z,28.42
2018-05-16T08:16:48.715Z,28.23
2018-05-16T08:17:30.718Z,28.25
2018-05-16T08:18:11.263Z,28.23
2018-05-16T08:18:51.759Z,28.2
2018-05-16T08:19:32.691Z,28.3
2018-05-16T08:20:14.536Z,28.25
2018-05-16T08:20:55.228Z,28.35
2018-05-16T08:21:35.748Z,28.38
2018-05-16T08:22:20.049Z,28.46
2018-05-16T08:24:18.992Z,28.87
2018-05-16T08:24:59.687Z,28.85
2018-05-16T08:25:40.775Z,28.89
2018-05-16T08:26:20.988Z,29.02
2018-05-16T08:27:01.433Z,29
2018-05-16T08:27:42.296Z,28.94
2018-05-16T08:28:22.938Z,28.74
2018-05-16T08:29:04.155Z,28.62
2018-05-16T08:29:44.700Z,28.51
2018-05-16T08:30:25.117Z,28.46
2018-05-16T08:31:05.669Z,28.54
2018-05-16T08:31:46.263Z,28.57
2018-05-16T08:32:26.750Z,28.6
2018-05-16T08:33:07.286Z,28.65
2018-05-16T08:33:47.821Z,28.72
2018-05-16T08:34:28.353Z,28.79
2018-05-16T08:35:08.815Z,28.77
2018-05-16T08:35:50.559Z,28.55
2018-05-16T08:37:43.613Z,28.33
2018-05-16T08:38:25.281Z,28.3
2018-05-16T08:42:14.097Z,28.24
2018-05-16T08:42:55.112Z,28.28
2018-05-16T08:43:35.388Z,28.09
2018-05-16T08:44:15.832Z,27.91
2018-05-16T08:44:56.276Z,28.03
2018-05-16T08:45:36.807Z,27.95
2018-05-16T08:46:17.202Z,27.91
2018-05-16T08:46:57.626Z,27.91
2018-05-16T08:47:38.057Z,27.88
2018-05-16T08:48:18.728Z,27.84
2018-05-16T08:48:59.120Z,27.88
2018-05-16T08:49:39.559Z,27.91
2018-05-16T08:50:20.001Z,27.91
2018-05-16T08:51:00.539Z,28.06
2018-05-16T08:51:40.934Z,28.21
2018-05-16T08:52:21.314Z,28.17
2018-05-16T08:53:01.739Z,28.21
2018-05-16T08:53:42.542Z,28.2
2018-05-16T08:54:23.000Z,28.38
2018-05-16T08:55:03.833Z,28.39
2018-05-16T08:55:44.878Z,28.6
2018-05-16T08:56:25.187Z,28.77
2018-05-16T08:57:05.600Z,28.92
2018-05-16T08:57:46.053Z,28.94
2018-05-16T08:58:26.901Z,29
2018-05-16T08:59:07.595Z,28.94
2018-05-16T08:59:48.069Z,28.88
2018-05-16T09:00:28.580Z,28.69
2018-05-16T09:01:09.244Z,28.69
2018-05-16T09:01:49.655Z,28.48
2018-05-16T09:02:30.521Z,28.36
2018-05-16T09:03:11.497Z,28.15
2018-05-16T09:03:52.281Z,28.01
2018-05-16T09:04:32.900Z,28.11
2018-05-16T09:05:13.562Z,28.06
2018-05-16T09:05:54.072Z,28.01
2018-05-16T09:06:34.735Z,28.13
2018-05-16T09:07:15.455Z,28.05
2018-05-16T09:07:56.701Z,27.99
2018-05-16T09:08:37.468Z,27.81
2018-05-16T09:09:18.450Z,27.65
2018-05-16T09:09:58.680Z,27.62
2018-05-16T09:10:39.391Z,27.4
2018-05-16T09:11:20.142Z,27.4
2018-05-16T09:12:00.827Z,27.23
2018-05-16T09:12:41.439Z,27.28
2018-05-16T09:13:22.571Z,27.25
2018-05-16T09:14:03.446Z,27.33
2018-05-16T09:14:44.006Z,27.43
2018-05-16T09:15:25.434Z,27.52
2018-05-16T09:16:06.323Z,27.61
2018-05-16T09:16:47.568Z,27.69
2018-05-16T09:17:29.491Z,27.69
2018-05-16T09:18:09.705Z,27.8
2018-05-16T09:18:51.154Z,27.87
2018-05-16T09:19:31.930Z,27.9
2018-05-16T09:20:12.840Z,28.14
2018-05-16T09:20:53.621Z,28.28
2018-05-16T09:21:34.327Z,28.43
2018-05-16T09:22:15.188Z,28.72
2018-05-16T09:22:55.966Z,28.85
2018-05-16T09:23:36.290Z,29
2018-05-16T09:24:16.849Z,29.25
2018-05-16T09:24:57.410Z,29.25
2018-05-16T09:25:38.461Z,29.39
2018-05-16T09:26:18.769Z,29.57
2018-05-16T09:26:59.203Z,29.58
2018-05-16T09:27:39.717Z,29.73
2018-05-16T09:28:20.109Z,29.71
2018-05-16T09:29:01.807Z,29.76
2018-05-16T09:29:41.761Z,29.82
2018-05-16T09:30:22.242Z,29.7
2018-05-16T09:31:02.843Z,29.69
2018-05-16T09:31:43.289Z,29.64
2018-05-16T09:32:23.857Z,29.67
2018-05-16T09:33:04.446Z,29.62
2018-05-16T09:33:45.910Z,29.49
2018-05-16T09:34:26.341Z,29.58
2018-05-16T09:35:06.757Z,29.42
2018-05-16T09:35:47.213Z,29.37
2018-05-16T09:36:28.060Z,29.51
2018-05-16T09:37:09.320Z,29.48
2018-05-16T09:37:50.060Z,29.49
2018-05-16T09:38:30.661Z,29.47
2018-05-16T09:39:10.977Z,29.6
2018-05-16T09:39:51.531Z,29.55
2018-05-16T09:40:32.212Z,29.71
2018-05-16T09:41:12.651Z,29.57
2018-05-16T09:41:53.089Z,29.54
2018-05-16T09:42:33.584Z,29.6
2018-05-16T09:43:14.178Z,29.57
2018-05-16T09:45:28.722Z,28.89
2018-05-16T09:46:09.302Z,28.77
2018-05-16T09:46:49.844Z,28.74
2018-05-16T09:47:30.373Z,28.67
2018-05-16T09:48:11.064Z,28.76
2018-05-16T09:48:55.360Z,28.85
2018-05-16T09:49:36.322Z,28.79
2018-05-16T09:50:17.432Z,28.76
2018-05-16T09:50:59.258Z,28.67
2018-05-16T09:51:39.644Z,28.57
2018-05-16T09:52:22.908Z,28.54
2018-05-16T09:54:01.432Z,28.69
2018-05-16T09:57:20.114Z,28.18
2018-05-16T09:57:59.858Z,28.14
2018-05-16T09:58:40.762Z,28.03
2018-05-16T09:59:22.064Z,27.96
2018-05-16T10:00:03.151Z,27.8
2018-05-16T10:00:43.538Z,27.65
2018-05-16T10:01:24.379Z,27.86
2018-05-16T10:02:04.428Z,27.76
2018-05-16T10:02:45.093Z,27.74
2018-05-16T10:03:25.554Z,27.71
2018-05-16T10:04:06.784Z,27.62
2018-05-16T10:42:08.890Z,26.91
2018-05-16T10:42:51.379Z,26.68
2018-05-16T10:45:42.854Z,26.16
2018-05-16T10:46:23.553Z,26.09
2018-05-16T10:47:05.055Z,26.01
2018-05-16T10:47:45.818Z,25.86
2018-05-16T10:48:27.306Z,25.71
2018-05-16T10:49:08.868Z,25.61
2018-05-16T10:49:51.817Z,25.61
2018-05-16T10:50:31.932Z,25.54
2018-05-16T10:51:14.342Z,25.41
2018-05-16T10:51:55.024Z,25.29
2018-05-16T10:52:36.729Z,25.17
2018-05-16T10:53:17.758Z,25.2
2018-05-16T10:53:58.636Z,25.14
2018-05-16T10:54:39.811Z,25.05
2018-05-16T10:55:20.846Z,25.09
2018-05-16T10:56:03.411Z,25.02
2018-05-16T10:56:43.417Z,24.92
2018-05-16T10:57:24.067Z,24.92
2018-05-16T10:58:04.481Z,24.94
2018-05-16T10:58:46.199Z,24.92
2018-05-16T10:59:34.150Z,25.04
2018-05-16T11:00:15.602Z,25.05
2018-05-16T11:00:56.050Z,25.07
2018-05-16T11:01:36.815Z,24.92
2018-05-16T11:02:17.391Z,24.92
2018-05-16T11:02:58.076Z,24.94
2018-05-16T11:03:39.766Z,24.93
2018-05-16T11:04:21.052Z,25.07
2018-05-16T11:05:04.140Z,25.05
2018-05-16T11:05:46.125Z,24.94
2018-05-16T11:06:27.131Z,24.9
2018-05-16T11:07:07.534Z,24.8
2018-05-16T11:07:49.576Z,24.66
2018-05-16T11:08:30.371Z,24.64
2018-05-16T11:09:11.507Z,24.48
2018-05-16T11:09:52.612Z,24.53
2018-05-16T11:10:33.898Z,24.55
2018-05-16T11:11:15.269Z,24.61
2018-05-16T11:11:55.916Z,24.55
2018-05-16T11:12:36.559Z,24.45
2018-05-16T11:13:17.121Z,24.48
2018-05-16T11:13:58.705Z,24.56
2018-05-16T11:14:39.124Z,24.49
2018-05-16T11:15:19.875Z,24.49
2018-05-16T11:16:00.412Z,24.46
2018-05-16T11:16:42.706Z,24.61
2018-05-16T11:17:24.640Z,24.6
2018-05-16T11:18:05.117Z,24.6
2018-05-16T11:18:45.686Z,24.55
2018-05-16T11:19:26.466Z,24.56
2018-05-16T11:20:07.031Z,24.46
2018-05-16T11:20:47.489Z,24.55
2018-05-16T11:21:29.215Z,24.45
2018-05-16T11:22:09.953Z,24.49
2018-05-16T11:22:50.357Z,24.6
2018-05-16T11:23:30.842Z,24.61
2018-05-16T11:24:11.380Z,24.7
2018-05-16T11:24:52.223Z,24.64
2018-05-16T11:25:33.129Z,24.67
2018-05-16T11:26:13.585Z,24.79
2018-05-16T11:26:55.260Z,24.74
2018-05-16T11:27:36.170Z,24.8
2018-05-16T11:28:16.830Z,24.55
2018-05-16T11:28:57.934Z,24.63
2018-05-16T11:29:40.561Z,24.56
2018-05-16T11:30:22.274Z,24.56
2018-05-16T11:31:02.918Z,24.63
2018-05-16T11:31:43.395Z,24.63
2018-05-16T11:32:24.284Z,24.75
2018-05-16T11:33:04.612Z,24.77
2018-05-16T11:33:45.124Z,24.79
2018-05-16T11:34:27.653Z,24.68
2018-05-16T11:35:10.128Z,24.7
2018-05-16T11:35:50.790Z,24.79
2018-05-16T11:36:32.055Z,24.75
2018-05-16T11:37:12.351Z,24.83
2018-05-16T11:37:53.130Z,24.9
2018-05-16T11:38:34.119Z,24.99
2018-05-16T11:39:15.088Z,25.05
2018-05-16T11:39:56.639Z,25.19
2018-05-16T11:40:36.543Z,25.2
2018-05-16T11:41:18.737Z,25.38
2018-05-16T11:42:03.157Z,25.48
2018-05-16T11:42:43.517Z,25.67
2018-05-16T11:43:25.321Z,25.82
2018-05-16T11:44:06.653Z,25.91
2018-05-16T11:44:46.646Z,26.06
2018-05-16T11:45:27.216Z,26.19
2018-05-16T11:46:09.388Z,26.27
2018-05-16T11:46:50.211Z,26.32
2018-05-16T11:48:38.646Z,26.38
2018-05-16T11:49:19.409Z,26.36
2018-05-16T11:50:00.502Z,26.19
2018-05-16T11:50:41.419Z,26.19
2018-05-16T11:51:24.627Z,26.19
2018-05-16T11:52:07.271Z,26.11
2018-05-16T11:52:54.518Z,26.09
2018-05-16T11:53:36.716Z,26.06
2018-05-16T11:54:16.926Z,26.19
2018-05-16T11:54:57.818Z,26.13
2018-05-16T11:55:39.845Z,26.27
2018-05-16T11:56:20.019Z,26.31
2018-05-16T11:57:01.654Z,26.34
2018-05-16T11:58:01.964Z,26.36
2018-05-16T12:00:12.275Z,26.23
2018-05-16T12:00:53.248Z,26.24
2018-05-16T12:01:34.111Z,26.17
2018-05-16T12:02:14.415Z,26.36
2018-05-16T12:02:54.867Z,26.34
2018-05-16T12:03:35.389Z,26.24
2018-05-16T12:04:16.024Z,26.34
2018-05-16T12:04:56.562Z,26.41
2018-05-16T12:05:37.050Z,26.38
2018-05-16T12:06:17.890Z,26.44
2018-05-16T12:06:58.591Z,26.36
2018-05-16T12:07:38.927Z,26.2
2018-05-16T12:08:19.784Z,26.24
2018-05-16T12:09:01.654Z,26.2
2018-05-16T12:09:43.174Z,26.13
2018-05-16T12:10:23.645Z,26
2018-05-16T12:11:04.644Z,26.03
2018-05-16T12:11:45.922Z,26.09
2018-05-16T12:12:26.268Z,26.08
2018-05-16T12:13:06.757Z,26.21
2018-05-16T12:13:48.220Z,26.2
2018-05-16T12:14:29.666Z,26.34
2018-05-16T12:15:12.877Z,26.35
2018-05-16T12:15:53.144Z,26.51
2018-05-16T12:16:33.648Z,26.56
2018-05-16T12:17:14.244Z,26.69
2018-05-16T12:17:54.820Z,26.6
2018-05-16T12:18:36.145Z,26.71
2018-05-16T12:19:16.133Z,26.65
2018-05-16T12:19:57.664Z,26.61
2018-05-16T12:20:38.871Z,26.71
2018-05-16T12:21:19.394Z,26.79
2018-05-16T12:22:01.838Z,26.78